ADDS METAR Data INFO
IDs: Format: Raw Decoded Include TAF

Data at: 1843 UTC 17 Oct 2017

PANI 171756Z AUTO 00000KT 10SM OVC036 M01/M02 A2945 RMK AO2 SLP942 T10061017 11006 21022 56008 FZRANO
PANI 171556Z AUTO 00000KT 10SM OVC038 M01/M02 A2946 RMK AO2 SLP946 T10111017 FZRANO
PANI 171256Z AUTO 00000KT 10SM OVC038 M02/M02 A2950 RMK AO2 SLP960 T10171022 FZRANO
PANI 170756Z AUTO 00000KT 8SM OVC039 M01/M01 A2959 RMK AO2 SLP990 T10111011 400441022 FZRANO
PANI 170734Z AUTO 00000KT 3SM BR FEW002 OVC037 M01/M01 A2960 RMK AO2 FZRANO
PANI 170656Z AUTO 00000KT 1/4SM FZFG BKN002 OVC033 M02/M02 A2961 RMK AO2 SLP996 T10171017 FZRANO
PANI 170615Z AUTO 00000KT 6SM BR FEW002 BKN033 M02/M02 A2962 RMK AO2 FZRANO
PANI 170525Z AUTO 00000KT 3SM BR SCT011 M01/M02 A2961 RMK AO2 FZRANO
PANI 170518Z AUTO 00000KT 2SM BR FEW013 M02/M02 A2962 RMK AO2 FZRANO
PANI 170515Z AUTO 00000KT 1SM BR VV013 M02/M02 A2962 RMK AO2 FZRANO
PANI 170511Z AUTO 00000KT 3/4SM BR FEW013 SCT032 M02/M02 A2962 RMK AO2 FZRANO
PANI 170507Z AUTO 00000KT 1 1/2SM BR FEW013 SCT034 M02/M02 A2962 RMK AO2 VIS 1/2V5 FZRANO
PANI 170456Z AUTO 00000KT 4SM BR SCT013 BKN034 M01/M02 A2962 RMK AO2 SLP000 T10111017 FZRANO
PANI 170256Z AUTO 00000KT 10SM CLR 01/01 A2965 RMK AO2 SLP008 60000 T00110006 57008 FZRANO
PANI 170146Z AUTO 26003KT 10SM -RA SCT012 BKN025 OVC032 02/01 A2966 RMK AO2 RAB36 P0000 FZRANO
PANI 162356Z AUTO 00000KT 10SM BKN007 BKN015 03/02 A2968 RMK AO2 CIG 005V010 SLP018 60000 T00330022 10033 21006 58003
PANI 162310Z AUTO 00000KT 10SM OVC007 03/02 A2968 RMK AO2
PANI 162256Z AUTO 27003KT 10SM OVC005 03/02 A2968 RMK AO2 CIG 003V010 SLP021 T00280022
PANI 162219Z AUTO VRB04KT 10SM OVC005 03/03 A2969 RMK AO2
PANI 162038Z AUTO VRB03KT 3SM -RA BR OVC003 02/02 A2968 RMK AO2 RAB34 P0000 FZRANO
PANI 161956Z AUTO 00000KT 3/4SM BR OVC003 01/01 A2968 RMK AO2 SLP019 T00060006 FZRANO
PANI 161921Z AUTO 00000KT 3/4SM BR OVC003 01/00 A2968 RMK AO2 FZRANO
PANI 161908Z AUTO 00000KT 1/2SM FG OVC003 00/00 A2967 RMK AO2 FZRANO
PANI 161856Z AUTO 00000KT 1/4SM FG OVC003 00/00 A2967 RMK AO2 SLP017 T00000000 FZRANO
PANI 161717Z AUTO 00000KT 1/4SM FZFG OVC003 M01/M01 A2966 RMK AO2 FZRANO
PANI 161656Z AUTO 00000KT 1/2SM FZFG OVC003 M01/M01 A2966 RMK AO2 SLP013 T10111011 FZRANO
PANI 161542Z AUTO 00000KT 1/2SM UP FG OVC003 00/00 A2965 RMK AO2 UPB36 P0000 FZRANO
PANI 161435Z AUTO 00000KT 1/2SM FG OVC003 01/01 A2964 RMK AO2 FZRANO
PANI 161356Z AUTO 00000KT 7SM OVC003 01/01 A2964 RMK AO2 SLP005 T00110006 FZRANO
PANI 161256Z AUTO 00000KT 10SM OVC005 02/01 A2963 RMK AO2 RAE03 SLP004 P0000 T00170011 FZRANO
PANI 161219Z AUTO 00000KT 10SM OVC005 01/01 A2963 RMK AO2 RAE03 P0000 FZRANO
PANI 161056Z AUTO 00000KT 10SM OVC009 01/01 A2963 RMK AO2 RAE56 SLP001 P0000 T00110011 FZRANO
PANI 160956Z AUTO 11004KT 10SM -RA OVC011 02/01 A2962 RMK AO2 SLP999 P0001 T00170011 FZRANO
PANI 160934Z AUTO 00000KT 10SM -RA BKN013 OVC020 01/01 A2962 RMK AO2 P0001 FZRANO
PANI 160915Z AUTO 00000KT 6SM -RA BR SCT013 OVC022 01/01 A2962 RMK AO2 P0001 FZRANO
PANI 160817Z AUTO 00000KT 10SM -RA FEW009 OVC015 02/01 A2961 RMK AO2 UPB10E16 P0000 FZRANO
PANI 160756Z AUTO 00000KT 10SM -RA BKN015 BKN022 OVC032 02/01 A2961 RMK AO2 RAB51 SLP994 P0000 T00170011 400440000 FZRANO